Terminal Aerodrome Forecast
Issued by NWS Grand Forks, ND

Home | Current Version | Previous Version | Graphics & Text | Print | Product List | Glossary On
Versions: 1 2 3 4 5 6 7 8 9 10 11 12 13 14 15 16 17
598
FTUS43 KFGF 032339
TAFGFK
TAF
KGFK 032339Z 0400/0424 28010KT 5SM -SN BKN025
     FM040200 29007KT P6SM BKN030
     FM040600 29007KT P6SM -SN BKN020
     FM041200 32007KT P6SM BKN025=

USA.gov is the U.S. government's official web portal to all federal, state and local government web resources and services.